sensor_id;sensor_type;location;lat;lon;timestamp;temperature;humidity
31451;DHT22;18070;52.474;13.304;2023-08-30T00:01:55;15.50;99.90
31451;DHT22;18070;52.474;13.304;2023-08-30T00:04:21;15.40;99.90
31451;DHT22;18070;52.474;13.304;2023-08-30T00:06:48;15.40;99.90
31451;DHT22;18070;52.474;13.304;2023-08-30T00:09:13;15.40;99.90
31451;DHT22;18070;52.474;13.304;2023-08-30T00:11:39;15.40;99.90
31451;DHT22;18070;52.474;13.304;2023-08-30T00:14:06;15.40;99.90
31451;DHT22;18070;52.474;13.304;2023-08-30T00:16:32;15.40;99.90
31451;DHT22;18070;52.474;13.304;2023-08-30T00:18:58;15.40;99.90
31451;DHT22;18070;52.474;13.304;2023-08-30T00:21:24;15.40;99.90
31451;DHT22;18070;52.474;13.304;2023-08-30T00:23:51;15.40;99.90
31451;DHT22;18070;52.474;13.304;2023-08-30T00:26:17;15.40;99.90
31451;DHT22;18070;52.474;13.304;2023-08-30T00:28:42;15.40;99.90
31451;DHT22;18070;52.474;13.304;2023-08-30T00:31:08;15.40;99.90
31451;DHT22;18070;52.474;13.304;2023-08-30T00:33:34;15.40;99.90
31451;DHT22;18070;52.474;13.304;2023-08-30T00:36:00;15.40;99.90
31451;DHT22;18070;52.474;13.304;2023-08-30T00:38:27;15.30;99.90
31451;DHT22;18070;52.474;13.304;2023-08-30T00:40:53;15.30;99.90
31451;DHT22;18070;52.474;13.304;2023-08-30T00:43:20;15.30;99.90
31451;DHT22;18070;52.474;13.304;2023-08-30T00:45:47;15.30;99.90
31451;DHT22;18070;52.474;13.304;2023-08-30T00:48:14;15.30;99.90
31451;DHT22;18070;52.474;13.304;2023-08-30T00:50:41;15.30;99.90
31451;DHT22;18070;52.474;13.304;2023-08-30T00:53:07;15.30;99.90
31451;DHT22;18070;52.474;13.304;2023-08-30T00:55:37;15.20;99.90
31451;DHT22;18070;52.474;13.304;2023-08-30T00:58:03;15.20;99.90
31451;DHT22;18070;52.474;13.304;2023-08-30T01:00:33;15.20;99.90
31451;DHT22;18070;52.474;13.304;2023-08-30T01:02:59;15.20;99.90
31451;DHT22;18070;52.474;13.304;2023-08-30T01:05:24;15.20;99.90
31451;DHT22;18070;52.474;13.304;2023-08-30T01:07:53;15.20;99.90
31451;DHT22;18070;52.474;13.304;2023-08-30T01:30:58;15.00;99.90
31451;DHT22;18070;52.474;13.304;2023-08-30T01:33:25;15.00;99.90
31451;DHT22;18070;52.474;13.304;2023-08-30T01:35:58;15.00;99.90
31451;DHT22;18070;52.474;13.304;2023-08-30T01:38:26;15.00;99.90
31451;DHT22;18070;52.474;13.304;2023-08-30T01:40:54;15.00;99.90
31451;DHT22;18070;52.474;13.304;2023-08-30T01:43:20;15.00;99.90
31451;DHT22;18070;52.474;13.304;2023-08-30T01:45:47;15.00;99.90
31451;DHT22;18070;52.474;13.304;2023-08-30T01:48:17;15.00;99.90
31451;DHT22;18070;52.474;13.304;2023-08-30T01:50:44;15.00;99.90
31451;DHT22;18070;52.474;13.304;2023-08-30T01:53:12;15.00;99.90
31451;DHT22;18070;52.474;13.304;2023-08-30T01:55:38;15.00;99.90
31451;DHT22;18070;52.474;13.304;2023-08-30T01:58:05;15.00;99.90
31451;DHT22;18070;52.474;13.304;2023-08-30T02:00:31;15.00;99.90
31451;DHT22;18070;52.474;13.304;2023-08-30T02:02:57;14.90;99.90
31451;DHT22;18070;52.474;13.304;2023-08-30T02:05:22;15.00;99.90
31451;DHT22;18070;52.474;13.304;2023-08-30T02:07:58;14.90;99.90
31451;DHT22;18070;52.474;13.304;2023-08-30T02:10:30;14.90;99.90
31451;DHT22;18070;52.474;13.304;2023-08-30T02:12:57;14.90;99.90
31451;DHT22;18070;52.474;13.304;2023-08-30T02:15:25;14.90;99.90
31451;DHT22;18070;52.474;13.304;2023-08-30T02:17:52;14.80;99.90
31451;DHT22;18070;52.474;13.304;2023-08-30T02:20:19;14.80;99.90
31451;DHT22;18070;52.474;13.304;2023-08-30T02:22:44;14.80;99.90
31451;DHT22;18070;52.474;13.304;2023-08-30T02:25:10;14.80;99.90
31451;DHT22;18070;52.474;13.304;2023-08-30T02:27:36;14.80;99.90
31451;DHT22;18070;52.474;13.304;2023-08-30T02:30:02;14.80;99.90
31451;DHT22;18070;52.474;13.304;2023-08-30T02:32:28;14.80;99.90
31451;DHT22;18070;52.474;13.304;2023-08-30T02:34:53;14.70;99.90
31451;DHT22;18070;52.474;13.304;2023-08-30T02:37:19;14.80;99.90
31451;DHT22;18070;52.474;13.304;2023-08-30T02:39:45;14.70;99.90
31451;DHT22;18070;52.474;13.304;2023-08-30T02:42:10;14.70;99.90
31451;DHT22;18070;52.474;13.304;2023-08-30T02:44:36;14.70;99.90
31451;DHT22;18070;52.474;13.304;2023-08-30T02:47:02;14.70;99.90
31451;DHT22;18070;52.474;13.304;2023-08-30T02:49:27;14.70;99.90
31451;DHT22;18070;52.474;13.304;2023-08-30T02:51:53;14.60;99.90
31451;DHT22;18070;52.474;13.304;2023-08-30T02:54:19;14.60;99.90
31451;DHT22;18070;52.474;13.304;2023-08-30T02:56:45;14.60;99.90
31451;DHT22;18070;52.474;13.304;2023-08-30T02:59:11;14.60;99.90
31451;DHT22;18070;52.474;13.304;2023-08-30T03:01:37;14.60;99.90
31451;DHT22;18070;52.474;13.304;2023-08-30T03:04:07;14.60;99.90
31451;DHT22;18070;52.474;13.304;2023-08-30T03:06:33;14.60;99.90
31451;DHT22;18070;52.474;13.304;2023-08-30T03:08:59;14.60;99.90
31451;DHT22;18070;52.474;13.304;2023-08-30T03:11:25;14.60;99.90
31451;DHT22;18070;52.474;13.304;2023-08-30T03:13:54;14.50;99.90
31451;DHT22;18070;52.474;13.304;2023-08-30T03:16:20;14.50;99.90
31451;DHT22;18070;52.474;13.304;2023-08-30T03:18:47;14.40;99.90
31451;DHT22;18070;52.474;13.304;2023-08-30T03:21:13;14.40;99.90
31451;DHT22;18070;52.474;13.304;2023-08-30T03:23:39;14.40;99.90
31451;DHT22;18070;52.474;13.304;2023-08-30T03:26:13;14.40;99.90
31451;DHT22;18070;52.474;13.304;2023-08-30T03:28:40;14.40;99.90
31451;DHT22;18070;52.474;13.304;2023-08-30T03:31:16;14.40;99.90
31451;DHT22;18070;52.474;13.304;2023-08-30T03:33:43;14.30;99.90
31451;DHT22;18070;52.474;13.304;2023-08-30T03:36:13;14.30;99.90
31451;DHT22;18070;52.474;13.304;2023-08-30T03:38:39;14.20;99.90
31451;DHT22;18070;52.474;13.304;2023-08-30T03:41:05;14.30;99.90
31451;DHT22;18070;52.474;13.304;2023-08-30T03:43:32;14.20;99.90
31451;DHT22;18070;52.474;13.304;2023-08-30T03:45:59;14.30;99.90
31451;DHT22;18070;52.474;13.304;2023-08-30T03:48:24;14.30;99.90
31451;DHT22;18070;52.474;13.304;2023-08-30T03:50:50;14.30;99.90
31451;DHT22;18070;52.474;13.304;2023-08-30T03:53:16;14.30;99.90
31451;DHT22;18070;52.474;13.304;2023-08-30T03:55:41;14.30;99.90
31451;DHT22;18070;52.474;13.304;2023-08-30T03:58:07;14.30;99.90
31451;DHT22;18070;52.474;13.304;2023-08-30T04:00:36;14.30;99.90
31451;DHT22;18070;52.474;13.304;2023-08-30T04:03:02;14.40;99.90
31451;DHT22;18070;52.474;13.304;2023-08-30T04:05:32;14.40;99.90
31451;DHT22;18070;52.474;13.304;2023-08-30T04:07:59;14.40;99.90
31451;DHT22;18070;52.474;13.304;2023-08-30T04:10:24;14.40;99.90
31451;DHT22;18070;52.474;13.304;2023-08-30T04:12:50;14.40;99.90
31451;DHT22;18070;52.474;13.304;2023-08-30T04:15:16;14.40;99.90
31451;DHT22;18070;52.474;13.304;2023-08-30T04:17:41;14.30;99.90
31451;DHT22;18070;52.474;13.304;2023-08-30T04:20:08;14.30;99.90
31451;DHT22;18070;52.474;13.304;2023-08-30T04:22:36;14.30;99.90
31451;DHT22;18070;52.474;13.304;2023-08-30T04:25:01;14.30;99.90
31451;DHT22;18070;52.474;13.304;2023-08-30T04:27:28;14.40;99.90
31451;DHT22;18070;52.474;13.304;2023-08-30T04:29:53;14.40;99.90
31451;DHT22;18070;52.474;13.304;2023-08-30T04:32:19;14.40;99.90
31451;DHT22;18070;52.474;13.304;2023-08-30T04:34:45;14.40;99.90
31451;DHT22;18070;52.474;13.304;2023-08-30T04:37:10;14.40;99.90
31451;DHT22;18070;52.474;13.304;2023-08-30T04:39:36;14.30;99.90
31451;DHT22;18070;52.474;13.304;2023-08-30T04:42:01;14.40;99.90
31451;DHT22;18070;52.474;13.304;2023-08-30T04:44:28;14.40;99.90
31451;DHT22;18070;52.474;13.304;2023-08-30T04:46:54;14.50;99.90
31451;DHT22;18070;52.474;13.304;2023-08-30T04:49:20;14.50;99.90
31451;DHT22;18070;52.474;13.304;2023-08-30T04:51:46;14.50;99.90
31451;DHT22;18070;52.474;13.304;2023-08-30T04:54:12;14.50;99.90
31451;DHT22;18070;52.474;13.304;2023-08-30T04:56:38;14.60;99.90
31451;DHT22;18070;52.474;13.304;2023-08-30T04:59:04;14.60;99.90
31451;DHT22;18070;52.474;13.304;2023-08-30T05:01:30;14.70;99.90
31451;DHT22;18070;52.474;13.304;2023-08-30T05:03:56;14.70;99.90
31451;DHT22;18070;52.474;13.304;2023-08-30T05:06:21;14.80;99.90
31451;DHT22;18070;52.474;13.304;2023-08-30T05:08:47;14.80;99.90
31451;DHT22;18070;52.474;13.304;2023-08-30T05:11:12;14.90;99.90
31451;DHT22;18070;52.474;13.304;2023-08-30T05:13:38;15.00;99.90
31451;DHT22;18070;52.474;13.304;2023-08-30T05:16:04;15.00;99.90
31451;DHT22;18070;52.474;13.304;2023-08-30T05:18:30;15.10;99.90
31451;DHT22;18070;52.474;13.304;2023-08-30T05:20:56;15.10;99.90
31451;DHT22;18070;52.474;13.304;2023-08-30T05:23:21;15.20;99.90
31451;DHT22;18070;52.474;13.304;2023-08-30T05:25:47;15.20;99.90
31451;DHT22;18070;52.474;13.304;2023-08-30T05:28:13;15.30;99.90
31451;DHT22;18070;52.474;13.304;2023-08-30T05:30:41;15.30;99.90
31451;DHT22;18070;52.474;13.304;2023-08-30T05:33:07;15.30;99.90
31451;DHT22;18070;52.474;13.304;2023-08-30T05:35:33;15.30;99.90
31451;DHT22;18070;52.474;13.304;2023-08-30T05:38:00;15.40;99.90
31451;DHT22;18070;52.474;13.304;2023-08-30T05:40:26;15.30;99.90
31451;DHT22;18070;52.474;13.304;2023-08-30T05:42:51;15.30;99.90
31451;DHT22;18070;52.474;13.304;2023-08-30T05:45:17;15.40;99.90
31451;DHT22;18070;52.474;13.304;2023-08-30T05:47:42;15.40;99.90
31451;DHT22;18070;52.474;13.304;2023-08-30T05:50:08;15.40;99.90
31451;DHT22;18070;52.474;13.304;2023-08-30T05:52:34;15.50;99.90
31451;DHT22;18070;52.474;13.304;2023-08-30T05:55:00;15.50;99.90
31451;DHT22;18070;52.474;13.304;2023-08-30T05:57:25;15.50;99.90
31451;DHT22;18070;52.474;13.304;2023-08-30T05:59:52;15.60;99.90
31451;DHT22;18070;52.474;13.304;2023-08-30T06:02:18;15.70;99.90
31451;DHT22;18070;52.474;13.304;2023-08-30T06:04:44;15.70;99.90
31451;DHT22;18070;52.474;13.304;2023-08-30T06:07:09;15.70;99.90
31451;DHT22;18070;52.474;13.304;2023-08-30T06:09:35;15.70;99.90
31451;DHT22;18070;52.474;13.304;2023-08-30T06:12:00;15.80;99.90
31451;DHT22;18070;52.474;13.304;2023-08-30T06:14:26;15.80;99.90
31451;DHT22;18070;52.474;13.304;2023-08-30T06:16:52;15.90;99.90
31451;DHT22;18070;52.474;13.304;2023-08-30T06:19:17;15.90;99.90
31451;DHT22;18070;52.474;13.304;2023-08-30T06:21:46;15.90;99.90
31451;DHT22;18070;52.474;13.304;2023-08-30T06:24:12;16.00;99.90
31451;DHT22;18070;52.474;13.304;2023-08-30T06:26:37;16.10;99.90
31451;DHT22;18070;52.474;13.304;2023-08-30T06:29:03;16.10;99.90
31451;DHT22;18070;52.474;13.304;2023-08-30T06:31:29;16.20;99.90
31451;DHT22;18070;52.474;13.304;2023-08-30T06:33:55;16.20;99.90
31451;DHT22;18070;52.474;13.304;2023-08-30T06:36:21;16.20;99.90
31451;DHT22;18070;52.474;13.304;2023-08-30T06:38:48;16.30;99.90
31451;DHT22;18070;52.474;13.304;2023-08-30T06:41:14;16.30;99.90
31451;DHT22;18070;52.474;13.304;2023-08-30T06:43:40;16.30;99.90
31451;DHT22;18070;52.474;13.304;2023-08-30T06:46:05;16.30;99.90
31451;DHT22;18070;52.474;13.304;2023-08-30T06:48:31;16.40;99.90
31451;DHT22;18070;52.474;13.304;2023-08-30T06:50:59;16.50;99.90
31451;DHT22;18070;52.474;13.304;2023-08-30T06:53:26;16.60;99.90
31451;DHT22;18070;52.474;13.304;2023-08-30T06:56:01;16.60;99.90
31451;DHT22;18070;52.474;13.304;2023-08-30T06:58:27;16.70;99.90
31451;DHT22;18070;52.474;13.304;2023-08-30T07:00:53;16.80;99.90
31451;DHT22;18070;52.474;13.304;2023-08-30T07:03:19;16.80;99.90
31451;DHT22;18070;52.474;13.304;2023-08-30T07:05:44;16.80;99.90
31451;DHT22;18070;52.474;13.304;2023-08-30T07:08:15;16.90;99.90
31451;DHT22;18070;52.474;13.304;2023-08-30T07:10:41;17.00;99.90
31451;DHT22;18070;52.474;13.304;2023-08-30T07:13:06;17.10;99.90
31451;DHT22;18070;52.474;13.304;2023-08-30T07:15:36;17.10;99.90
31451;DHT22;18070;52.474;13.304;2023-08-30T07:18:02;17.10;99.90
31451;DHT22;18070;52.474;13.304;2023-08-30T07:20:29;17.20;99.90
31451;DHT22;18070;52.474;13.304;2023-08-30T07:22:54;17.20;99.90
31451;DHT22;18070;52.474;13.304;2023-08-30T07:25:20;17.30;99.90
31451;DHT22;18070;52.474;13.304;2023-08-30T07:27:45;17.40;99.90
31451;DHT22;18070;52.474;13.304;2023-08-30T07:30:11;17.40;99.90
31451;DHT22;18070;52.474;13.304;2023-08-30T07:32:37;17.50;99.90
31451;DHT22;18070;52.474;13.304;2023-08-30T07:35:04;17.40;99.90
31451;DHT22;18070;52.474;13.304;2023-08-30T07:37:30;17.40;99.90
31451;DHT22;18070;52.474;13.304;2023-08-30T07:39:55;17.40;99.90
31451;DHT22;18070;52.474;13.304;2023-08-30T07:42:21;17.40;99.90
31451;DHT22;18070;52.474;13.304;2023-08-30T07:44:46;17.30;99.90
31451;DHT22;18070;52.474;13.304;2023-08-30T07:47:12;17.30;99.90
31451;DHT22;18070;52.474;13.304;2023-08-30T07:49:38;17.40;99.90
31451;DHT22;18070;52.474;13.304;2023-08-30T07:52:03;17.40;99.90
31451;DHT22;18070;52.474;13.304;2023-08-30T07:54:30;17.40;99.90
31451;DHT22;18070;52.474;13.304;2023-08-30T07:56:56;17.40;99.90
31451;DHT22;18070;52.474;13.304;2023-08-30T07:59:22;17.40;99.90
31451;DHT22;18070;52.474;13.304;2023-08-30T08:01:47;17.40;99.90
31451;DHT22;18070;52.474;13.304;2023-08-30T08:04:13;17.40;99.90
31451;DHT22;18070;52.474;13.304;2023-08-30T08:06:38;17.40;99.90
31451;DHT22;18070;52.474;13.304;2023-08-30T08:09:05;17.40;99.90
31451;DHT22;18070;52.474;13.304;2023-08-30T08:11:32;17.40;99.90
31451;DHT22;18070;52.474;13.304;2023-08-30T08:13:57;17.40;99.90
31451;DHT22;18070;52.474;13.304;2023-08-30T08:16:23;17.50;99.90
31451;DHT22;18070;52.474;13.304;2023-08-30T08:18:48;17.50;99.90
31451;DHT22;18070;52.474;13.304;2023-08-30T08:21:16;17.50;99.90
31451;DHT22;18070;52.474;13.304;2023-08-30T08:23:41;17.50;99.90
31451;DHT22;18070;52.474;13.304;2023-08-30T08:26:07;17.60;99.90
31451;DHT22;18070;52.474;13.304;2023-08-30T08:28:33;17.70;99.90
31451;DHT22;18070;52.474;13.304;2023-08-30T08:30:58;17.80;99.90
31451;DHT22;18070;52.474;13.304;2023-08-30T08:33:24;17.80;99.90
31451;DHT22;18070;52.474;13.304;2023-08-30T08:35:50;17.90;99.90
31451;DHT22;18070;52.474;13.304;2023-08-30T08:38:15;18.00;99.90
31451;DHT22;18070;52.474;13.304;2023-08-30T08:40:41;18.00;99.90
31451;DHT22;18070;52.474;13.304;2023-08-30T08:43:11;18.10;99.90
31451;DHT22;18070;52.474;13.304;2023-08-30T08:45:38;18.20;99.90
31451;DHT22;18070;52.474;13.304;2023-08-30T08:48:04;18.30;99.90
31451;DHT22;18070;52.474;13.304;2023-08-30T08:50:34;18.30;99.90
31451;DHT22;18070;52.474;13.304;2023-08-30T08:53:02;18.40;99.90
31451;DHT22;18070;52.474;13.304;2023-08-30T08:55:28;18.60;99.90
31451;DHT22;18070;52.474;13.304;2023-08-30T08:57:57;18.70;99.90
31451;DHT22;18070;52.474;13.304;2023-08-30T09:00:24;18.80;99.90
31451;DHT22;18070;52.474;13.304;2023-08-30T09:02:49;19.00;99.90
31451;DHT22;18070;52.474;13.304;2023-08-30T09:05:18;19.20;99.90
31451;DHT22;18070;52.474;13.304;2023-08-30T09:07:44;19.40;99.90
31451;DHT22;18070;52.474;13.304;2023-08-30T09:10:10;19.70;99.90
31451;DHT22;18070;52.474;13.304;2023-08-30T09:12:36;20.20;99.90
31451;DHT22;18070;52.474;13.304;2023-08-30T09:15:02;20.60;99.90
31451;DHT22;18070;52.474;13.304;2023-08-30T09:17:38;20.80;99.90
31451;DHT22;18070;52.474;13.304;2023-08-30T09:20:09;21.00;99.90
31451;DHT22;18070;52.474;13.304;2023-08-30T09:22:42;21.20;99.90
31451;DHT22;18070;52.474;13.304;2023-08-30T09:25:22;21.40;99.90
31451;DHT22;18070;52.474;13.304;2023-08-30T09:27:49;21.90;99.90
31451;DHT22;18070;52.474;13.304;2023-08-30T09:30:14;22.30;99.90
31451;DHT22;18070;52.474;13.304;2023-08-30T09:32:46;22.80;99.90
31451;DHT22;18070;52.474;13.304;2023-08-30T09:35:12;23.50;99.90
31451;DHT22;18070;52.474;13.304;2023-08-30T09:37:37;23.70;99.90
31451;DHT22;18070;52.474;13.304;2023-08-30T09:40:04;23.70;99.90
31451;DHT22;18070;52.474;13.304;2023-08-30T09:42:30;23.70;99.90
31451;DHT22;18070;52.474;13.304;2023-08-30T09:44:56;23.80;99.90
31451;DHT22;18070;52.474;13.304;2023-08-30T09:47:24;24.20;99.90
31451;DHT22;18070;52.474;13.304;2023-08-30T09:49:54;24.40;99.90
31451;DHT22;18070;52.474;13.304;2023-08-30T09:52:23;24.10;99.90
31451;DHT22;18070;52.474;13.304;2023-08-30T09:54:49;23.80;99.90
31451;DHT22;18070;52.474;13.304;2023-08-30T09:57:16;24.00;99.90
31451;DHT22;18070;52.474;13.304;2023-08-30T09:59:42;23.70;99.90
31451;DHT22;18070;52.474;13.304;2023-08-30T10:02:08;23.50;99.90
31451;DHT22;18070;52.474;13.304;2023-08-30T10:04:38;23.40;99.90
31451;DHT22;18070;52.474;13.304;2023-08-30T10:07:07;23.50;99.90
31451;DHT22;18070;52.474;13.304;2023-08-30T10:09:33;23.90;99.90
31451;DHT22;18070;52.474;13.304;2023-08-30T10:11:58;24.20;99.90
31451;DHT22;18070;52.474;13.304;2023-08-30T10:14:27;24.40;99.90
31451;DHT22;18070;52.474;13.304;2023-08-30T10:17:02;24.70;99.90
31451;DHT22;18070;52.474;13.304;2023-08-30T10:19:29;24.50;99.90
31451;DHT22;18070;52.474;13.304;2023-08-30T10:22:01;24.30;99.90
31451;DHT22;18070;52.474;13.304;2023-08-30T10:24:36;23.90;99.90
31451;DHT22;18070;52.474;13.304;2023-08-30T10:27:04;23.80;99.90
31451;DHT22;18070;52.474;13.304;2023-08-30T10:29:31;23.70;99.90
31451;DHT22;18070;52.474;13.304;2023-08-30T10:32:05;23.90;99.90
31451;DHT22;18070;52.474;13.304;2023-08-30T10:34:37;24.50;99.90
31451;DHT22;18070;52.474;13.304;2023-08-30T10:37:06;24.70;99.90
31451;DHT22;18070;52.474;13.304;2023-08-30T10:39:40;24.60;99.90
31451;DHT22;18070;52.474;13.304;2023-08-30T10:42:16;24.60;99.90
31451;DHT22;18070;52.474;13.304;2023-08-30T10:44:56;24.30;99.90
31451;DHT22;18070;52.474;13.304;2023-08-30T10:47:30;24.50;99.90
31451;DHT22;18070;52.474;13.304;2023-08-30T10:49:57;24.50;99.90
31451;DHT22;18070;52.474;13.304;2023-08-30T10:52:23;24.20;99.90
31451;DHT22;18070;52.474;13.304;2023-08-30T10:54:50;24.10;99.90
31451;DHT22;18070;52.474;13.304;2023-08-30T10:57:20;24.30;99.90
31451;DHT22;18070;52.474;13.304;2023-08-30T11:02:36;24.60;99.90
31451;DHT22;18070;52.474;13.304;2023-08-30T11:05:02;24.70;99.90
31451;DHT22;18070;52.474;13.304;2023-08-30T11:07:31;25.00;99.90
31451;DHT22;18070;52.474;13.304;2023-08-30T11:09:58;24.70;99.90
31451;DHT22;18070;52.474;13.304;2023-08-30T11:12:23;24.50;99.90
31451;DHT22;18070;52.474;13.304;2023-08-30T11:14:51;24.40;99.90
31451;DHT22;18070;52.474;13.304;2023-08-30T11:17:17;24.20;99.90
31451;DHT22;18070;52.474;13.304;2023-08-30T11:19:43;23.90;99.90
31451;DHT22;18070;52.474;13.304;2023-08-30T11:22:09;23.60;99.90
31451;DHT22;18070;52.474;13.304;2023-08-30T11:24:35;23.40;99.90
31451;DHT22;18070;52.474;13.304;2023-08-30T11:27:01;23.40;99.90
31451;DHT22;18070;52.474;13.304;2023-08-30T11:29:27;23.40;99.90
31451;DHT22;18070;52.474;13.304;2023-08-30T11:31:53;23.40;99.90
31451;DHT22;18070;52.474;13.304;2023-08-30T11:34:21;23.30;99.90
31451;DHT22;18070;52.474;13.304;2023-08-30T11:36:50;23.20;99.90
31451;DHT22;18070;52.474;13.304;2023-08-30T11:39:16;23.20;99.90
31451;DHT22;18070;52.474;13.304;2023-08-30T11:41:43;23.10;99.90
31451;DHT22;18070;52.474;13.304;2023-08-30T11:44:08;23.00;99.90
31451;DHT22;18070;52.474;13.304;2023-08-30T11:46:34;22.80;99.90
31451;DHT22;18070;52.474;13.304;2023-08-30T11:49:00;22.80;99.90
31451;DHT22;18070;52.474;13.304;2023-08-30T11:51:26;22.80;99.90
31451;DHT22;18070;52.474;13.304;2023-08-30T11:53:52;22.70;99.90
31451;DHT22;18070;52.474;13.304;2023-08-30T11:56:19;22.60;99.90
31451;DHT22;18070;52.474;13.304;2023-08-30T11:58:45;22.60;99.90
31451;DHT22;18070;52.474;13.304;2023-08-30T12:01:11;22.60;99.90
31451;DHT22;18070;52.474;13.304;2023-08-30T12:03:38;22.70;99.90
31451;DHT22;18070;52.474;13.304;2023-08-30T12:06:12;22.90;99.90
31451;DHT22;18070;52.474;13.304;2023-08-30T12:08:38;22.80;99.90
31451;DHT22;18070;52.474;13.304;2023-08-30T12:11:04;22.70;99.90
31451;DHT22;18070;52.474;13.304;2023-08-30T12:13:33;22.60;99.90
31451;DHT22;18070;52.474;13.304;2023-08-30T12:16:00;22.50;99.90
31451;DHT22;18070;52.474;13.304;2023-08-30T12:18:44;22.30;99.90
31451;DHT22;18070;52.474;13.304;2023-08-30T12:21:09;22.20;99.90
31451;DHT22;18070;52.474;13.304;2023-08-30T12:23:35;22.10;99.90
31451;DHT22;18070;52.474;13.304;2023-08-30T12:26:03;21.90;99.90
31451;DHT22;18070;52.474;13.304;2023-08-30T12:28:33;21.70;99.90
31451;DHT22;18070;52.474;13.304;2023-08-30T12:31:00;21.60;99.90
31451;DHT22;18070;52.474;13.304;2023-08-30T12:33:26;21.50;99.90
31451;DHT22;18070;52.474;13.304;2023-08-30T12:35:52;21.50;99.90
31451;DHT22;18070;52.474;13.304;2023-08-30T12:38:18;21.60;99.90
31451;DHT22;18070;52.474;13.304;2023-08-30T12:40:45;21.80;99.90
31451;DHT22;18070;52.474;13.304;2023-08-30T12:43:11;21.90;99.90
31451;DHT22;18070;52.474;13.304;2023-08-30T12:45:41;22.10;99.90
31451;DHT22;18070;52.474;13.304;2023-08-30T12:48:08;22.10;99.90
31451;DHT22;18070;52.474;13.304;2023-08-30T12:50:38;22.20;99.90
31451;DHT22;18070;52.474;13.304;2023-08-30T12:53:07;22.20;99.90
31451;DHT22;18070;52.474;13.304;2023-08-30T12:55:33;22.40;99.90
31451;DHT22;18070;52.474;13.304;2023-08-30T12:58:02;22.40;99.90
31451;DHT22;18070;52.474;13.304;2023-08-30T13:00:30;22.50;99.90
31451;DHT22;18070;52.474;13.304;2023-08-30T13:02:56;22.50;99.90
31451;DHT22;18070;52.474;13.304;2023-08-30T13:05:22;22.50;99.90
31451;DHT22;18070;52.474;13.304;2023-08-30T13:07:47;22.50;99.90
31451;DHT22;18070;52.474;13.304;2023-08-30T13:10:14;22.30;99.90
31451;DHT22;18070;52.474;13.304;2023-08-30T13:12:39;22.20;99.90
31451;DHT22;18070;52.474;13.304;2023-08-30T13:15:06;22.10;99.90
31451;DHT22;18070;52.474;13.304;2023-08-30T13:17:32;22.10;99.90
31451;DHT22;18070;52.474;13.304;2023-08-30T13:19:57;22.00;99.90
31451;DHT22;18070;52.474;13.304;2023-08-30T13:22:24;22.00;99.90
31451;DHT22;18070;52.474;13.304;2023-08-30T13:24:50;22.00;99.90
31451;DHT22;18070;52.474;13.304;2023-08-30T13:27:16;22.10;99.90
31451;DHT22;18070;52.474;13.304;2023-08-30T13:29:42;22.10;99.90
31451;DHT22;18070;52.474;13.304;2023-08-30T13:32:07;22.10;99.90
31451;DHT22;18070;52.474;13.304;2023-08-30T13:34:33;22.00;99.90
31451;DHT22;18070;52.474;13.304;2023-08-30T13:36:58;21.90;99.90
31451;DHT22;18070;52.474;13.304;2023-08-30T13:39:24;21.90;99.90
31451;DHT22;18070;52.474;13.304;2023-08-30T13:41:50;21.90;99.90
31451;DHT22;18070;52.474;13.304;2023-08-30T13:44:15;21.80;99.90
31451;DHT22;18070;52.474;13.304;2023-08-30T13:46:42;21.80;99.90
31451;DHT22;18070;52.474;13.304;2023-08-30T13:49:08;21.80;99.90
31451;DHT22;18070;52.474;13.304;2023-08-30T13:51:34;21.90;99.90
31451;DHT22;18070;52.474;13.304;2023-08-30T13:53:59;22.10;99.90
31451;DHT22;18070;52.474;13.304;2023-08-30T13:56:25;22.40;99.90
31451;DHT22;18070;52.474;13.304;2023-08-30T13:58:51;22.70;99.90
31451;DHT22;18070;52.474;13.304;2023-08-30T14:01:16;22.90;99.90
31451;DHT22;18070;52.474;13.304;2023-08-30T14:03:43;23.00;99.90
31451;DHT22;18070;52.474;13.304;2023-08-30T14:06:09;22.90;99.90
31451;DHT22;18070;52.474;13.304;2023-08-30T14:08:35;22.80;99.90
31451;DHT22;18070;52.474;13.304;2023-08-30T14:11:01;22.70;99.80
31451;DHT22;18070;52.474;13.304;2023-08-30T14:13:26;22.60;99.40
31451;DHT22;18070;52.474;13.304;2023-08-30T14:15:58;22.70;99.50
31451;DHT22;18070;52.474;13.304;2023-08-30T14:18:23;22.70;99.90
31451;DHT22;18070;52.474;13.304;2023-08-30T14:20:49;22.60;99.90
31451;DHT22;18070;52.474;13.304;2023-08-30T14:23:15;22.70;99.90
31451;DHT22;18070;52.474;13.304;2023-08-30T14:25:40;23.00;99.90
31451;DHT22;18070;52.474;13.304;2023-08-30T14:28:06;23.40;98.30
31451;DHT22;18070;52.474;13.304;2023-08-30T14:30:32;23.50;98.10
31451;DHT22;18070;52.474;13.304;2023-08-30T14:32:57;23.40;97.70
31451;DHT22;18070;52.474;13.304;2023-08-30T14:35:23;23.40;98.10
31451;DHT22;18070;52.474;13.304;2023-08-30T14:37:50;23.30;95.70
31451;DHT22;18070;52.474;13.304;2023-08-30T14:40:16;23.30;97.40
31451;DHT22;18070;52.474;13.304;2023-08-30T14:42:42;23.30;96.50
31451;DHT22;18070;52.474;13.304;2023-08-30T14:45:08;23.20;98.70
31451;DHT22;18070;52.474;13.304;2023-08-30T14:47:34;23.30;97.70
31451;DHT22;18070;52.474;13.304;2023-08-30T14:49:59;23.20;96.00
31451;DHT22;18070;52.474;13.304;2023-08-30T14:52:30;23.30;96.70
31451;DHT22;18070;52.474;13.304;2023-08-30T14:54:56;23.10;96.70
31451;DHT22;18070;52.474;13.304;2023-08-30T14:57:22;23.00;95.80
31451;DHT22;18070;52.474;13.304;2023-08-30T14:59:48;23.00;96.70
31451;DHT22;18070;52.474;13.304;2023-08-30T15:02:14;23.00;96.70
31451;DHT22;18070;52.474;13.304;2023-08-30T15:04:40;22.70;97.10
31451;DHT22;18070;52.474;13.304;2023-08-30T15:07:06;22.70;97.30
31451;DHT22;18070;52.474;13.304;2023-08-30T15:09:32;22.30;99.40
31451;DHT22;18070;52.474;13.304;2023-08-30T15:11:57;22.00;97.70
31451;DHT22;18070;52.474;13.304;2023-08-30T15:14:27;22.00;98.40
31451;DHT22;18070;52.474;13.304;2023-08-30T15:16:53;22.10;98.20
31451;DHT22;18070;52.474;13.304;2023-08-30T15:19:18;22.20;98.30
31451;DHT22;18070;52.474;13.304;2023-08-30T15:21:45;22.40;98.20
31451;DHT22;18070;52.474;13.304;2023-08-30T15:24:10;22.50;97.80
31451;DHT22;18070;52.474;13.304;2023-08-30T15:26:38;22.20;98.90
31451;DHT22;18070;52.474;13.304;2023-08-30T15:29:04;22.10;98.70
31451;DHT22;18070;52.474;13.304;2023-08-30T15:31:30;22.10;98.60
31451;DHT22;18070;52.474;13.304;2023-08-30T15:33:56;21.90;99.30
31451;DHT22;18070;52.474;13.304;2023-08-30T15:36:21;21.70;99.90